Warning: Javascript must be enabled to use all the features on this page!


Page Loading - Please Wait...

Click to hideNews Bulletins

Peak Streamflow for the Nation

USGS 04229500 HONEOYE CREEK AT HONEOYE FALLS NY

Monroe County, New York
Hydrologic Unit Code 04130003
Latitude  42°57'26", Longitude  77°35'20" NAD83
Drainage area 196  square miles
Gage datum 607.79 feet above NAVD88
Output formats
Table
Graph
Tab-separated file
peakfq (watstore) format
Reselect output format
Water
Year
Date Gage
Height
(feet)
Stream-
flow
(cfs)
1946 1945-12-07 4.433 1,4905
1947 1947-06-03 4.713 1,7405
1948 1948-03-16 3.902,3 1,0805
1949 1949-01-06 4.043 1,2005
1950 1950-03-28 6.423 4,6305
1951 1951-02-22 4.782,3 1,9805
1952 1952-03-11 4.453 1,6105
1953 1953-06-22 4.873 2,0805
1954 1954-05-02 4.713 1,8905
1955 1955-03-01 5.993 3,7905
1956 1956-03-07 5.842,3 3,8805
1957 1957-05-20 4.443 1,7005
1958 1958-04-08 3.823 1,0905
1959 1959-01-22 5.323 2,6905
1960 1960-03-30 5.943 3,7005
1961 1961-04-25 4.502,3 1,5705
1962 1962-04-30 4.042,3 1,2005
1963 1963-03-18 4.912,3 2,1305
1964 1964-03-05 4.322,3 1,4705
1965 1965-02-09 3.491,3 5605
1966 1966-02-14 3.722,3 9325
1967 1967-05-12 3.453 8955
1968 1968-01-31 3.792,3 1,1105
1969 1969-04-19 4.632,3 1,9105
1970 1969-12-11 3.593 9635
1972 1972-06-23 6.303,5,6 6,6002,5,7,9
1973 1973-04-05 4.613 2,8005
1974 1974-02-22 3.413 1,0705
1975 1975-02-25 3.993 1,8005
1976 1976-03-04 5.283 4,1505
1977 1977-09-20 4.463 2,5605
1978 1977-12-15 3.983 1,8305
1979 1979-03-05 4.792,3 3,1705
1980 1979-12-26 3.783 1,6205
1981 1981-02-20 3.192,3 1,0305
1982 1982-03-14 3.302,3 1,1305
1983 1983-04-26 2.953 9285
1984 1984-05-29 3.472,3 1,4205
1985 1985-02-24 3.272,3 1,1005
1986 1986-01-21 4.223 2,1905
1987 1987-04-05 4.233 2,3305
1988 1988-04-04 3.143 9915
1989 1989-05-12 3.683 1,5105
1990 1990-04-11 4.593 2,7505
1991 1991-04-22 4.353 2,3805
1992 1992-07-18 4.313 2,3205
1993 1993-04-02 5.333 3,9605
1994 1994-03-23 3.562,3 1,3805
1995 1995-01-21 3.253 1,0805
1996 1996-01-20 4.623 2,8205
1997 1996-10-20 3.183 1,1305
1998 1998-01-09 5.003 3,4405
1999 1999-01-24 3.762,3 1,5605
2000 2000-05-13 3.342,3 1,2005
2001 2001-04-09 3.893 1,8305
2002 2002-02-02 3.363 1,3305
2003 2003-03-18 3.302,3,5 1,3002,5
2004 2004-05-24 4.553 2,6505
2005 2005-04-04 5.063 3,5805
2006 2006-03-14 3.613 1,4105
2007 2007-03-15 4.851,3 3,0002,5
2008 2008-02-07 3.673 1,5105
2009 2008-12-28 4.443 2,4805
2010 2010-03-14 3.883 1,7405
2011 2010-12-02 3.663 1,5005
2012 2012-05-04 3.163 1,0305
2013 2013-04-13 3.703 1,5405
2014 2014-05-16 5.633 4,8005
2015 2015-06-15 4.363 2,3805
2016 2016-02-25 3.821,3 1,2405
2017 2017-04-21 4.273 2,2405
2018 2018-01-12 4.183 2,1105
2019 2019-06-21 5.806 1,6405
2020 2019-12-31 5.47 1,2805
?
  Peak Gage-Height Qualification Codes.
?
  Peak Streamflow Qualification Codes.